createdAt,value
2022-09-28T00:01:22.001Z,96.19
2022-09-28T00:06:26.087Z,97.62
2022-09-28T00:11:29.366Z,99.08
2022-09-28T00:16:36.188Z,100.00
2022-09-28T00:21:40.046Z,100.00
2022-09-28T00:26:50.510Z,100.00
2022-09-28T00:32:02.637Z,100.00
2022-09-28T00:37:06.656Z,100.00
2022-09-28T00:42:11.718Z,100.00
2022-09-28T00:47:14.408Z,100.00
2022-09-28T00:52:25.607Z,100.00
2022-09-28T00:57:29.124Z,100.00
2022-09-28T01:02:32.265Z,100.00
2022-09-28T01:07:36.018Z,100.00
2022-09-28T01:12:38.759Z,100.00
2022-09-28T01:17:44.638Z,100.00
2022-09-28T01:23:02.587Z,100.00
2022-09-28T01:28:08.458Z,100.00
2022-09-28T01:33:14.335Z,99.90
2022-09-28T01:38:22.256Z,99.88
2022-09-28T01:43:26.855Z,99.89
2022-09-28T01:48:33.982Z,99.53
2022-09-28T01:53:39.355Z,99.19
2022-09-28T01:58:46.776Z,99.49
2022-09-28T02:03:53.571Z,99.90
2022-09-28T02:08:59.853Z,100.00
2022-09-28T02:14:05.219Z,100.00
2022-09-28T02:19:13.176Z,100.00
2022-09-28T02:24:21.588Z,100.00
2022-09-28T02:29:25.393Z,100.00
2022-09-28T02:34:28.094Z,100.00
2022-09-28T02:39:31.916Z,100.00
2022-09-28T02:44:44.859Z,100.00
2022-09-28T02:49:47.554Z,100.00
2022-09-28T02:54:50.461Z,100.00
2022-09-28T02:59:56.962Z,100.00
2022-09-28T03:05:18.292Z,100.00
2022-09-28T03:10:20.982Z,100.00
2022-09-28T03:15:30.745Z,100.00
2022-09-28T03:20:34.127Z,100.00
2022-09-28T03:25:36.867Z,100.00
2022-09-28T03:30:39.559Z,100.00
2022-09-28T03:35:42.793Z,100.00
2022-09-28T03:40:52.913Z,100.00
2022-09-28T03:45:57.115Z,100.00
2022-09-28T03:51:01.419Z,100.00
2022-09-28T03:56:08.722Z,100.00
2022-09-28T04:01:16.629Z,100.00
2022-09-28T04:06:20.093Z,100.00
2022-09-28T04:11:24.299Z,100.00
2022-09-28T04:16:27.449Z,100.00
2022-09-28T04:21:30.614Z,100.00
2022-09-28T04:26:33.312Z,100.00
2022-09-28T04:31:40.882Z,100.00
2022-09-28T04:36:45.201Z,100.00
2022-09-28T04:41:48.375Z,100.00
2022-09-28T04:46:51.072Z,100.00
2022-09-28T04:51:53.977Z,100.00
2022-09-28T04:56:57.392Z,100.00
2022-09-28T05:02:00.360Z,100.00
2022-09-28T05:07:03.202Z,100.00
2022-09-28T05:12:06.009Z,100.00
2022-09-28T05:17:10.240Z,100.00
2022-09-28T05:22:15.019Z,100.00
2022-09-28T05:27:17.680Z,100.00
2022-09-28T05:32:20.895Z,100.00
2022-09-28T05:37:23.590Z,100.00
2022-09-28T05:42:26.392Z,100.00
2022-09-28T05:47:29.499Z,100.00
2022-09-28T05:52:32.731Z,100.00
2022-09-28T05:57:35.410Z,100.00
2022-09-28T06:02:38.151Z,100.00
2022-09-28T06:07:41.121Z,100.00
2022-09-28T06:12:45.042Z,100.00
2022-09-28T06:17:48.152Z,100.00
2022-09-28T06:22:51.981Z,100.00
2022-09-28T06:27:55.706Z,100.00
2022-09-28T06:32:59.833Z,100.00
2022-09-28T06:38:02.632Z,100.00
2022-09-28T06:43:10.529Z,100.00
2022-09-28T06:48:13.667Z,100.00
2022-09-28T06:53:16.467Z,100.00
2022-09-28T06:58:20.495Z,100.00
2022-09-28T07:03:23.603Z,100.00
2022-09-28T07:08:29.070Z,100.00
2022-09-28T07:13:50.723Z,99.96
2022-09-28T07:18:54.230Z,99.33
2022-09-28T07:23:56.926Z,99.28
2022-09-28T07:28:59.643Z,99.31
2022-09-28T07:34:02.708Z,99.28
2022-09-28T07:39:05.640Z,99.65
2022-09-28T07:44:08.440Z,99.73
2022-09-28T07:49:12.484Z,99.94
2022-09-28T07:54:15.373Z,99.99
2022-09-28T07:59:18.944Z,99.00
2022-09-28T08:04:21.796Z,98.06
2022-09-28T08:09:24.497Z,97.42
2022-09-28T08:14:27.815Z,97.22
2022-09-28T08:19:50.477Z,97.67
2022-09-28T08:24:53.277Z,97.27
2022-09-28T08:29:56.117Z,96.12
2022-09-28T08:34:59.904Z,96.04
2022-09-28T08:40:02.719Z,95.76
2022-09-28T08:45:27.122Z,93.70
2022-09-28T08:50:31.864Z,91.00
2022-09-28T08:55:37.929Z,89.29
2022-09-28T09:00:40.643Z,88.23
2022-09-28T09:05:52.353Z,86.87
2022-09-28T09:11:17.884Z,82.80
2022-09-28T09:16:20.616Z,79.32
2022-09-28T09:21:43.070Z,73.66
2022-09-28T09:26:45.951Z,70.61
2022-09-28T09:31:51.418Z,71.96
2022-09-28T09:37:08.557Z,73.24
2022-09-28T09:42:28.352Z,69.49
2022-09-28T09:47:35.558Z,65.31
2022-09-28T09:52:44.447Z,57.49
2022-09-28T09:57:51.809Z,48.10
2022-09-28T10:02:55.270Z,39.74
2022-09-28T10:08:10.623Z,38.08
2022-09-28T10:13:13.836Z,43.75
2022-09-28T10:18:19.401Z,48.75
2022-09-28T10:23:27.460Z,52.35
2022-09-28T10:28:35.757Z,52.43
2022-09-28T10:33:39.171Z,53.64
2022-09-28T10:38:47.815Z,51.45
2022-09-28T10:44:07.345Z,48.61
2022-09-28T10:49:17.890Z,51.14
2022-09-28T10:54:22.026Z,53.75
2022-09-28T10:59:31.389Z,55.47
2022-09-28T11:04:38.787Z,53.54
2022-09-28T11:09:45.149Z,49.40
2022-09-28T11:14:52.998Z,45.34
2022-09-28T11:19:56.925Z,47.66
2022-09-28T11:25:13.240Z,51.48
2022-09-28T11:30:23.492Z,54.71
2022-09-28T11:35:44.543Z,57.59
2022-09-28T11:40:53.541Z,58.83
2022-09-28T11:46:11.519Z,58.70
2022-09-28T11:51:24.897Z,56.81
2022-09-28T11:56:39.374Z,54.78
2022-09-28T12:01:58.955Z,50.23
2022-09-28T12:07:08.631Z,39.54
2022-09-28T12:12:22.602Z,35.31
2022-09-28T12:17:29.823Z,32.57
2022-09-28T12:22:35.167Z,29.61
2022-09-28T12:27:41.342Z,27.72
2022-09-28T12:32:46.813Z,26.58
2022-09-28T12:37:53.909Z,29.08
2022-09-28T12:43:03.572Z,33.45
2022-09-28T12:48:17.330Z,36.09
2022-09-28T12:53:25.996Z,36.90
2022-09-28T12:58:38.199Z,35.52
2022-09-28T13:03:52.464Z,33.80
2022-09-28T13:09:14.254Z,34.51
2022-09-28T13:14:19.879Z,36.65
2022-09-28T13:19:37.836Z,39.49
2022-09-28T13:24:44.529Z,42.28
2022-09-28T13:29:49.380Z,42.29
2022-09-28T13:34:52.695Z,43.87
2022-09-28T13:39:57.037Z,46.11
2022-09-28T13:45:20.211Z,48.02
2022-09-28T13:50:29.358Z,48.66
2022-09-28T13:55:40.865Z,45.41
2022-09-28T14:00:51.448Z,43.31
2022-09-28T14:06:00.803Z,43.20
2022-09-28T14:11:25.130Z,40.73
2022-09-28T14:16:31.290Z,40.31
2022-09-28T14:21:46.378Z,41.39
2022-09-28T14:27:01.364Z,44.39
2022-09-28T14:32:16.662Z,47.17
2022-09-28T14:37:39.839Z,47.36
2022-09-28T14:43:02.508Z,45.89
2022-09-28T14:48:05.341Z,46.05
2022-09-28T14:53:13.699Z,46.85
2022-09-28T14:58:22.585Z,47.74
2022-09-28T15:03:27.301Z,47.68
2022-09-28T15:08:37.712Z,48.06
2022-09-28T15:13:40.926Z,48.97
2022-09-28T15:19:02.589Z,49.04
2022-09-28T15:24:40.363Z,49.47
2022-09-28T15:29:54.257Z,50.07
2022-09-28T15:34:57.288Z,51.12
2022-09-28T15:40:00.674Z,52.48
2022-09-28T15:45:07.955Z,53.02
2022-09-28T15:50:21.639Z,53.68
2022-09-28T15:55:33.042Z,54.78
2022-09-28T16:00:36.048Z,55.99
2022-09-28T16:05:52.776Z,57.15
2022-09-28T16:11:11.147Z,58.84
2022-09-28T16:16:17.068Z,61.15
2022-09-28T16:21:19.924Z,62.96
2022-09-28T16:26:29.343Z,64.32
2022-09-28T16:31:34.752Z,65.84
2022-09-28T16:36:43.689Z,67.21
2022-09-28T16:41:52.216Z,68.27
2022-09-28T16:46:57.177Z,69.41
2022-09-28T16:52:00.591Z,69.26
2022-09-28T16:57:04.726Z,69.23
2022-09-28T17:02:45.016Z,70.24
2022-09-28T17:07:44.985Z,71.59
2022-09-28T17:12:47.950Z,73.94
2022-09-28T17:17:51.466Z,74.47
2022-09-28T17:22:54.276Z,74.57
2022-09-28T17:27:58.133Z,75.29
2022-09-28T17:33:01.814Z,75.43
2022-09-28T17:38:04.519Z,76.04
2022-09-28T17:43:07.626Z,76.81
2022-09-28T17:48:15.960Z,76.79
2022-09-28T17:53:18.655Z,77.45
2022-09-28T17:58:22.687Z,78.35
2022-09-28T18:03:25.900Z,79.90
2022-09-28T18:08:29.414Z,80.90
2022-09-28T18:13:32.117Z,81.94
2022-09-28T18:18:38.500Z,82.72
2022-09-28T18:23:41.201Z,83.08
2022-09-28T18:28:43.902Z,83.78
2022-09-28T18:33:48.446Z,84.08
2022-09-28T18:38:51.231Z,84.51
2022-09-28T18:44:00.623Z,84.57
2022-09-28T18:49:06.164Z,84.65
2022-09-28T18:54:08.972Z,85.09
2022-09-28T18:59:12.630Z,85.61
2022-09-28T19:04:15.904Z,86.03
2022-09-28T19:09:20.519Z,86.13
2022-09-28T19:14:23.298Z,86.40
2022-09-28T19:19:26.051Z,85.98
2022-09-28T19:24:29.263Z,86.11
2022-09-28T19:29:31.963Z,85.89
2022-09-28T19:34:34.762Z,85.77
2022-09-28T19:39:37.462Z,85.97
2022-09-28T19:44:40.162Z,86.34
2022-09-28T19:49:42.803Z,86.18
2022-09-28T19:54:55.899Z,86.55
2022-09-28T20:00:02.705Z,86.70
2022-09-28T20:05:07.611Z,87.20
2022-09-28T20:10:12.040Z,87.24
2022-09-28T20:15:14.888Z,87.91
2022-09-28T20:20:18.412Z,89.47
2022-09-28T20:25:21.829Z,91.39
2022-09-28T20:30:24.525Z,92.95
2022-09-28T20:35:32.902Z,94.60
2022-09-28T20:40:37.960Z,95.16
2022-09-28T20:45:40.924Z,95.78
2022-09-28T20:50:43.617Z,96.09
